createdAt,value
2023-05-13T00:00:07.305Z,98168.53
2023-05-13T00:03:11.804Z,98165.63
2023-05-13T00:06:14.656Z,98156.44
2023-05-13T00:09:17.383Z,98162.97
2023-05-13T00:12:20.055Z,98171.94
2023-05-13T00:15:22.990Z,98169.56
2023-05-13T00:18:27.185Z,98174.19
2023-05-13T00:21:30.016Z,98173.63
2023-05-13T00:24:32.751Z,98170.44
2023-05-13T00:27:35.405Z,98173.13
2023-05-13T00:30:38.515Z,98173.63
2023-05-13T00:33:42.689Z,98173.38
2023-05-13T00:36:45.591Z,98173.91
2023-05-13T00:39:48.437Z,98174.78
2023-05-13T00:42:51.471Z,98166.97
2023-05-13T00:45:54.379Z,98160.56
2023-05-13T00:48:59.581Z,98169.22
2023-05-13T00:52:03.086Z,98173.00
2023-05-13T00:55:07.144Z,98180.78
2023-05-13T00:58:10.069Z,98169.78
2023-05-13T01:01:20.367Z,98163.38
2023-05-13T01:04:31.481Z,98170.91
2023-05-13T01:07:39.507Z,98170.13
2023-05-13T01:10:46.206Z,98172.56
2023-05-13T01:13:53.705Z,98178.78
2023-05-13T01:17:07.158Z,98176.16
2023-05-13T01:20:13.254Z,98178.63
2023-05-13T01:23:17.346Z,98186.47
2023-05-13T01:26:20.397Z,98180.13
2023-05-13T01:29:23.113Z,98184.22
2023-05-13T01:32:26.421Z,98191.25
2023-05-13T01:35:30.898Z,98193.97
2023-05-13T01:38:36.365Z,98184.91
2023-05-13T01:41:39.186Z,98187.63
2023-05-13T01:44:41.983Z,98185.53
2023-05-13T01:47:44.759Z,98179.16
2023-05-13T01:50:47.459Z,98185.34
2023-05-13T01:53:51.789Z,98180.81
2023-05-13T01:56:54.616Z,98192.13
2023-05-13T01:59:57.236Z,98190.50
2023-05-13T02:03:00.120Z,98183.00
2023-05-13T02:06:03.141Z,98185.16
2023-05-13T02:09:07.530Z,98195.38
2023-05-13T02:12:10.445Z,98195.16
2023-05-13T02:15:14.085Z,98193.28
2023-05-13T02:18:16.848Z,98192.00
2023-05-13T02:21:19.610Z,98198.38
2023-05-13T02:24:23.681Z,98187.16
2023-05-13T02:27:26.488Z,98189.59
2023-05-13T02:30:29.158Z,98197.09
2023-05-13T02:33:32.041Z,98200.03
2023-05-13T02:36:34.750Z,98191.47
2023-05-13T02:39:38.938Z,98196.53
2023-05-13T02:42:43.265Z,98197.34
2023-05-13T02:45:48.873Z,98200.28
2023-05-13T02:48:51.591Z,98196.81
2023-05-13T02:51:54.345Z,98202.97
2023-05-13T02:54:58.460Z,98199.75
2023-05-13T02:58:01.334Z,98196.00
2023-05-13T03:01:04.112Z,98201.06
2023-05-13T03:04:06.923Z,98191.91
2023-05-13T03:07:09.998Z,98192.69
2023-05-13T03:10:15.220Z,98196.44
2023-05-13T03:13:17.987Z,98196.09
2023-05-13T03:16:20.682Z,98193.41
2023-05-13T03:19:23.433Z,98190.16
2023-05-13T03:22:26.123Z,98200.06
2023-05-13T03:25:30.300Z,98199.78
2023-05-13T03:28:32.934Z,98202.47
2023-05-13T03:31:35.644Z,98202.47
2023-05-13T03:34:38.381Z,98206.69
2023-05-13T03:37:41.100Z,98199.72
2023-05-13T03:40:45.176Z,98208.31
2023-05-13T03:43:47.938Z,98201.31
2023-05-13T03:46:50.708Z,98205.09
2023-05-13T03:49:53.462Z,98205.66
2023-05-13T03:52:57.113Z,98213.97
2023-05-13T03:56:01.206Z,98215.28
2023-05-13T03:59:03.900Z,98225.75
2023-05-13T04:02:06.815Z,98220.09
2023-05-13T04:05:10.961Z,98221.47
2023-05-13T04:08:14.103Z,98217.19
2023-05-13T04:11:18.135Z,98216.09
2023-05-13T04:14:20.908Z,98223.84
2023-05-13T04:17:23.731Z,98228.97
2023-05-13T04:20:26.788Z,98223.84
2023-05-13T04:23:29.485Z,98225.72
2023-05-13T04:26:33.561Z,98234.34
2023-05-13T04:29:36.269Z,98237.56
2023-05-13T04:32:39.194Z,98236.22
2023-05-13T04:35:42.141Z,98245.38
2023-05-13T04:38:45.041Z,98239.44
2023-05-13T04:41:49.078Z,98241.03
2023-05-13T04:44:51.742Z,98244.53
2023-05-13T04:47:56.217Z,98243.41
2023-05-13T04:51:00.911Z,98239.63
2023-05-13T04:54:04.031Z,98242.31
2023-05-13T04:57:08.228Z,98247.69
2023-05-13T05:00:12.275Z,98252.28
2023-05-13T05:03:15.044Z,98254.16
2023-05-13T05:06:18.048Z,98253.06
2023-05-13T05:09:20.926Z,98254.13
2023-05-13T05:12:25.122Z,98253.03
2023-05-13T05:15:27.869Z,98261.31
2023-05-13T05:18:30.678Z,98261.84
2023-05-13T05:21:33.486Z,98259.94
2023-05-13T05:24:36.285Z,98267.75
2023-05-13T05:27:40.328Z,98262.88
2023-05-13T05:30:43.254Z,98268.25
2023-05-13T05:33:45.939Z,98275.22
2023-05-13T05:36:48.817Z,98276.84
2023-05-13T05:39:51.519Z,98284.06
2023-05-13T05:42:55.750Z,98281.91
2023-05-13T05:45:58.488Z,98282.41
2023-05-13T05:49:03.827Z,98284.81
2023-05-13T05:52:07.205Z,98293.16
2023-05-13T05:55:10.748Z,98292.88
2023-05-13T05:58:17.715Z,98291.00
2023-05-13T06:01:20.594Z,98292.88
2023-05-13T06:04:23.256Z,98290.19
2023-05-13T06:07:26.218Z,98295.78
2023-05-13T06:10:29.100Z,98295.56
2023-05-13T06:13:33.210Z,98293.91
2023-05-13T06:16:36.062Z,98300.66
2023-05-13T06:19:38.922Z,98294.72
2023-05-13T06:22:41.881Z,98303.28
2023-05-13T06:25:44.614Z,98296.84
2023-05-13T06:28:49.110Z,98300.56
2023-05-13T06:31:51.988Z,98293.56
2023-05-13T06:34:55.918Z,98301.09
2023-05-13T06:37:58.871Z,98301.34
2023-05-13T06:41:01.619Z,98299.16
2023-05-13T06:44:06.595Z,98303.97
2023-05-13T06:47:14.640Z,98306.06
2023-05-13T06:50:17.704Z,98305.53
2023-05-13T06:53:20.373Z,98299.25
2023-05-13T06:56:24.053Z,98300.53
2023-05-13T06:59:28.069Z,98309.66
2023-05-13T07:02:30.800Z,98305.16
2023-05-13T07:05:34.042Z,98303.81
2023-05-13T07:08:36.793Z,98306.44
2023-05-13T07:11:40.034Z,98307.56
2023-05-13T07:14:45.303Z,98308.88
2023-05-13T07:17:48.152Z,98309.34
2023-05-13T07:20:51.185Z,98308.75
2023-05-13T07:23:53.871Z,98310.84
2023-05-13T07:26:56.589Z,98320.78
2023-05-13T07:30:00.699Z,98317.47
2023-05-13T07:33:03.388Z,98322.63
2023-05-13T07:36:06.961Z,98325.31
2023-05-13T07:39:09.882Z,98320.44
2023-05-13T07:42:12.713Z,98314.25
2023-05-13T07:45:16.759Z,98310.47
2023-05-13T07:48:19.729Z,98318.53
2023-05-13T07:51:22.544Z,98308.28
2023-05-13T07:54:25.241Z,98321.75
2023-05-13T07:57:27.874Z,98318.50
2023-05-13T08:00:31.979Z,98322.78
2023-05-13T08:03:34.778Z,98316.38
2023-05-13T08:06:37.665Z,98322.78
2023-05-13T08:09:40.534Z,98321.13
2023-05-13T08:12:43.491Z,98327.25
2023-05-13T08:15:47.553Z,98330.19
2023-05-13T08:18:50.453Z,98327.78
2023-05-13T08:21:53.099Z,98330.47
2023-05-13T08:24:55.886Z,98331.53
2023-05-13T08:27:58.849Z,98338.03
2023-05-13T08:31:03.484Z,98332.88
2023-05-13T08:34:06.497Z,98340.94
2023-05-13T08:37:09.196Z,98333.16
2023-05-13T08:40:13.309Z,98333.91
2023-05-13T08:43:17.201Z,98330.34
2023-05-13T08:46:25.171Z,98334.13
2023-05-13T08:49:28.452Z,98332.19
2023-05-13T08:52:32.546Z,98338.38
2023-05-13T08:55:35.342Z,98348.78
2023-05-13T08:58:38.010Z,98346.38
2023-05-13T09:01:42.266Z,98342.66
2023-05-13T09:04:50.775Z,98341.69
2023-05-13T09:07:54.490Z,98349.19
2023-05-13T09:10:57.778Z,98343.75
2023-05-13T09:14:01.519Z,98347.50
2023-05-13T09:17:06.109Z,98340.44
2023-05-13T09:20:09.963Z,98343.38
2023-05-13T09:23:14.072Z,98337.34
2023-05-13T09:26:28.185Z,98341.00
2023-05-13T09:29:31.043Z,98337.31
2023-05-13T09:32:35.295Z,98334.69
2023-05-13T09:35:39.433Z,98331.94
2023-05-13T09:38:42.175Z,98329.16
2023-05-13T09:41:45.168Z,98331.72
2023-05-13T09:44:48.868Z,98342.81
2023-05-13T09:47:53.498Z,98333.09
2023-05-13T09:50:58.069Z,98337.63
2023-05-13T09:54:06.164Z,98332.03
2023-05-13T09:57:08.909Z,98332.91
2023-05-13T10:00:21.141Z,98340.41
2023-05-13T10:03:33.770Z,98342.66
2023-05-13T10:06:37.611Z,98343.13
2023-05-13T10:09:41.814Z,98345.66
2023-05-13T10:12:44.894Z,98351.78
2023-05-13T10:15:50.911Z,98356.88
2023-05-13T10:18:55.781Z,98355.28
2023-05-13T10:21:59.360Z,98352.56
2023-05-13T10:25:04.125Z,98348.06
2023-05-13T10:28:07.260Z,98351.53
2023-05-13T10:31:10.480Z,98353.72
2023-05-13T10:34:14.771Z,98354.31
2023-05-13T10:37:51.381Z,98347.47
2023-05-13T10:41:10.064Z,98353.16
2023-05-13T10:44:13.292Z,98349.97
2023-05-13T10:47:18.185Z,98345.44
2023-05-13T10:50:28.841Z,98345.44
2023-05-13T10:53:33.165Z,98349.44
2023-05-13T10:56:36.228Z,98351.28
2023-05-13T11:00:20.620Z,98353.09
2023-05-13T11:03:30.828Z,98346.63
2023-05-13T11:06:37.808Z,98346.53
2023-05-13T11:09:40.458Z,98348.78
2023-05-13T11:12:43.224Z,98343.41
2023-05-13T11:15:46.530Z,98350.69
2023-05-13T11:18:49.592Z,98345.00
2023-05-13T11:21:55.514Z,98342.75
2023-05-13T11:25:06.156Z,98346.63
2023-05-13T11:28:09.099Z,98339.81
2023-05-13T11:31:18.162Z,98335.75
2023-05-13T11:34:21.413Z,98343.69
2023-05-13T11:37:25.528Z,98351.00
2023-05-13T11:40:29.713Z,98348.28
2023-05-13T11:43:34.724Z,98344.28
2023-05-13T11:46:37.924Z,98349.25
2023-05-13T11:49:42.296Z,98348.56
2023-05-13T11:52:46.538Z,98348.97
2023-05-13T11:55:49.819Z,98348.19
2023-05-13T11:58:53.284Z,98341.22
2023-05-13T12:02:02.382Z,98338.84
2023-05-13T12:05:07.008Z,98338.94
2023-05-13T12:08:11.711Z,98339.38
2023-05-13T12:11:14.961Z,98342.06
2023-05-13T12:14:18.303Z,98344.44
2023-05-13T12:17:22.671Z,98347.69
2023-05-13T12:20:26.150Z,98347.28
2023-05-13T12:23:40.848Z,98340.38
2023-05-13T12:26:43.660Z,98343.13
2023-05-13T12:29:46.608Z,98342.44
2023-05-13T12:32:49.270Z,98342.84
2023-05-13T12:35:53.528Z,98339.38
2023-05-13T12:39:00.491Z,98341.25
2023-05-13T12:42:03.804Z,98334.84
2023-05-13T12:45:08.012Z,98334.25
2023-05-13T12:48:11.891Z,98339.38
2023-05-13T12:51:15.874Z,98335.06
2023-05-13T12:54:20.118Z,98344.97
2023-05-13T12:57:22.923Z,98346.88
2023-05-13T13:00:25.803Z,98345.34
2023-05-13T13:03:28.772Z,98344.66
2023-05-13T13:06:32.446Z,98342.06
2023-05-13T13:09:37.228Z,98341.28
2023-05-13T13:12:40.298Z,98333.53
2023-05-13T13:15:43.154Z,98336.97
2023-05-13T13:18:46.096Z,98343.16
2023-05-13T13:21:48.993Z,98337.13
2023-05-13T13:24:53.003Z,98337.47
2023-05-13T13:27:55.796Z,98333.44
2023-05-13T13:30:59.586Z,98328.88
2023-05-13T13:34:04.449Z,98326.44
2023-05-13T13:37:07.170Z,98322.47
2023-05-13T13:40:13.503Z,98317.41
2023-05-13T13:43:16.301Z,98314.34
2023-05-13T13:46:19.037Z,98308.75
2023-05-13T13:49:24.133Z,98306.03
2023-05-13T13:52:28.540Z,98310.06
2023-05-13T13:55:32.647Z,98300.72
2023-05-13T13:58:35.918Z,98304.00
2023-05-13T14:01:40.350Z,98297.59
2023-05-13T14:04:43.041Z,98299.00
2023-05-13T14:07:46.387Z,98298.75
2023-05-13T14:10:50.747Z,98303.47
2023-05-13T14:13:53.615Z,98296.47
2023-05-13T14:16:56.382Z,98302.78
2023-05-13T14:19:59.141Z,98299.84
2023-05-13T14:23:03.311Z,98291.22
2023-05-13T14:26:09.608Z,98299.31
2023-05-13T14:29:12.311Z,98287.97
2023-05-13T14:32:15.190Z,98291.44
2023-05-13T14:35:18.801Z,98298.03
2023-05-13T14:38:21.475Z,98292.47
2023-05-13T14:41:25.704Z,98294.72
2023-05-13T14:44:28.483Z,98290.91
2023-05-13T14:47:31.569Z,98286.00
2023-05-13T14:50:34.313Z,98279.13
2023-05-13T14:53:37.005Z,98277.56
2023-05-13T14:56:41.983Z,98279.13
2023-05-13T14:59:44.686Z,98281.44
2023-05-13T15:02:47.465Z,98279.94
2023-05-13T15:05:51.605Z,98276.34
2023-05-13T15:08:54.637Z,98278.72
2023-05-13T15:11:58.703Z,98271.81
2023-05-13T15:15:01.408Z,98271.50
2023-05-13T15:18:04.204Z,98270.28
2023-05-13T15:21:07.043Z,98268.28
2023-05-13T15:24:09.789Z,98269.22
2023-05-13T15:27:14.176Z,98267.59
2023-05-13T15:30:17.034Z,98261.19
2023-05-13T15:33:19.732Z,98258.50
2023-05-13T15:36:22.395Z,98258.25
2023-05-13T15:39:25.134Z,98259.78
2023-05-13T15:42:29.616Z,98263.22
2023-05-13T15:45:32.522Z,98262.53
2023-05-13T15:48:35.289Z,98258.97
2023-05-13T15:51:37.980Z,98255.38
2023-05-13T15:54:40.710Z,98255.59
2023-05-13T15:57:44.804Z,98244.56
2023-05-13T16:00:47.507Z,98243.28
2023-05-13T16:03:50.431Z,98245.19
2023-05-13T16:06:53.139Z,98236.69
2023-05-13T16:09:55.921Z,98248.56
2023-05-13T16:12:59.924Z,98246.06
2023-05-13T16:16:02.626Z,98240.41
2023-05-13T16:19:05.450Z,98240.66
2023-05-13T16:22:26.399Z,98238.88
2023-05-13T16:25:29.048Z,98246.38
2023-05-13T16:28:33.156Z,98235.00
2023-05-13T16:31:36.150Z,98242.66
2023-05-13T16:34:38.816Z,98244.38
2023-05-13T16:37:41.653Z,98244.31
2023-05-13T16:40:44.494Z,98246.31
2023-05-13T16:43:48.559Z,98245.50
2023-05-13T16:46:51.340Z,98252.00
2023-05-13T16:49:56.094Z,98245.31
2023-05-13T16:52:58.842Z,98250.09
2023-05-13T16:56:01.674Z,98251.22
2023-05-13T16:59:05.759Z,98236.47
2023-05-13T17:02:08.609Z,98239.19
2023-05-13T17:05:11.285Z,98241.09
2023-05-13T17:08:13.985Z,98235.41
2023-05-13T17:11:17.556Z,98236.47
2023-05-13T17:14:21.696Z,98241.88
2023-05-13T17:17:24.429Z,98237.09
2023-05-13T17:20:27.218Z,98228.38
2023-05-13T17:23:29.878Z,98234.09
2023-05-13T17:26:32.888Z,98231.88
2023-05-13T17:29:37.038Z,98235.09
2023-05-13T17:32:39.807Z,98240.19
2023-05-13T17:35:42.546Z,98237.78
2023-05-13T17:38:45.415Z,98236.97
2023-05-13T17:41:48.089Z,98236.41
2023-05-13T17:44:52.145Z,98233.38
2023-05-13T17:47:54.935Z,98233.19
2023-05-13T17:50:58.902Z,98238.41
2023-05-13T17:54:01.679Z,98235.78
2023-05-13T17:57:04.729Z,98236.59
2023-05-13T18:00:10.074Z,98232.81
2023-05-13T18:03:12.901Z,98232.09
2023-05-13T18:06:16.027Z,98235.09
2023-05-13T18:09:18.874Z,98239.19
2023-05-13T18:12:21.553Z,98234.59
2023-05-13T18:15:25.692Z,98243.81
2023-05-13T18:18:28.440Z,98236.91
2023-05-13T18:21:31.692Z,98238.91
2023-05-13T18:24:34.455Z,98238.97
2023-05-13T18:27:37.124Z,98233.38
2023-05-13T18:30:41.192Z,98244.78
2023-05-13T18:33:44.002Z,98251.38
2023-05-13T18:36:46.876Z,98242.78
2023-05-13T18:39:49.611Z,98257.28
2023-05-13T18:42:52.380Z,98254.38
2023-05-13T18:45:57.985Z,98248.25
2023-05-13T18:49:01.045Z,98252.75
2023-05-13T18:52:03.786Z,98252.31
2023-05-13T18:55:07.428Z,98252.28
2023-05-13T18:58:10.133Z,98259.03
2023-05-13T19:01:16.382Z,98260.50
2023-05-13T19:04:19.328Z,98268.19
2023-05-13T19:07:22.441Z,98267.94
2023-05-13T19:10:25.391Z,98275.31
2023-05-13T19:13:36.227Z,98279.78
2023-05-13T19:16:50.803Z,98276.66
2023-05-13T19:19:53.568Z,98282.56
2023-05-13T19:22:56.299Z,98284.81
2023-05-13T19:25:59.294Z,98283.78
2023-05-13T19:29:02.637Z,98281.38
2023-05-13T19:32:07.389Z,98279.56
2023-05-13T19:35:10.871Z,98287.94
2023-05-13T19:38:13.632Z,98289.38
2023-05-13T19:41:16.444Z,98289.22
2023-05-13T19:44:19.460Z,98287.97
2023-05-13T19:47:23.555Z,98290.00
2023-05-13T19:50:26.370Z,98299.00
2023-05-13T19:53:29.144Z,98298.31
2023-05-13T19:56:31.799Z,98296.03
2023-05-13T19:59:35.865Z,98305.22
2023-05-13T20:02:40.639Z,98298.00
2023-05-13T20:05:43.503Z,98303.44
2023-05-13T20:08:46.213Z,98308.88
2023-05-13T20:11:48.997Z,98305.94
2023-05-13T20:14:55.476Z,98302.97
2023-05-13T20:17:59.615Z,98308.97
2023-05-13T20:21:02.806Z,98310.31
2023-05-13T20:24:05.906Z,98307.47
2023-05-13T20:27:08.614Z,98312.63
2023-05-13T20:30:12.374Z,98305.66
2023-05-13T20:33:16.640Z,98306.22
2023-05-13T20:36:19.359Z,98304.91
2023-05-13T20:39:22.116Z,98302.03
2023-05-13T20:42:25.432Z,98303.91
2023-05-13T20:45:28.432Z,98303.66
2023-05-13T20:48:34.751Z,98300.91
2023-05-13T20:51:37.547Z,98296.34
2023-05-13T20:54:40.446Z,98291.56
2023-05-13T20:57:44.165Z,98291.50
2023-05-13T21:00:46.989Z,98288.81
2023-05-13T21:03:51.092Z,98285.59
2023-05-13T21:06:53.899Z,98286.41
2023-05-13T21:09:56.587Z,98277.53
2023-05-13T21:12:59.450Z,98285.28
2023-05-13T21:16:04.806Z,98283.63
2023-05-13T21:19:09.076Z,98288.44
2023-05-13T21:22:11.754Z,98284.91
2023-05-13T21:25:14.574Z,98292.38
2023-05-13T21:28:18.713Z,98288.06
2023-05-13T21:31:21.495Z,98287.50
2023-05-13T21:34:25.719Z,98275.09
2023-05-13T21:37:28.540Z,98278.53
2023-05-13T21:40:31.244Z,98283.84
2023-05-13T21:43:34.083Z,98293.56
2023-05-13T21:46:36.909Z,98289.50
2023-05-13T21:49:40.982Z,98286.75
2023-05-13T21:52:43.790Z,98283.28
2023-05-13T21:55:46.581Z,98280.31
2023-05-13T21:58:49.942Z,98265.97
2023-05-13T22:01:52.726Z,98278.88
2023-05-13T22:04:56.893Z,98277.03
2023-05-13T22:08:01.826Z,98268.41
2023-05-13T22:11:04.563Z,98258.16
2023-05-13T22:14:07.277Z,98264.09
2023-05-13T22:17:10.383Z,98264.38
2023-05-13T22:20:15.099Z,98272.75
2023-05-13T22:23:17.846Z,98260.88
2023-05-13T22:26:21.793Z,98268.66
2023-05-13T22:29:24.597Z,98263.00
2023-05-13T22:32:27.560Z,98257.34
2023-05-13T22:35:32.029Z,98248.69
2023-05-13T22:38:34.752Z,98251.97
2023-05-13T22:41:37.480Z,98249.25
2023-05-13T22:44:40.272Z,98253.28
2023-05-13T22:47:42.988Z,98253.53
2023-05-13T22:50:47.105Z,98250.84
2023-05-13T22:53:49.970Z,98253.84
2023-05-13T22:56:52.632Z,98259.81
2023-05-13T22:59:55.404Z,98254.19
2023-05-13T23:02:58.379Z,98249.59
2023-05-13T23:06:02.452Z,98245.59
2023-05-13T23:09:05.575Z,98239.41
2023-05-13T23:12:08.926Z,98241.00
2023-05-13T23:15:14.769Z,98241.31
2023-05-13T23:18:17.432Z,98233.53
2023-05-13T23:21:21.472Z,98233.75
2023-05-13T23:24:24.299Z,98236.50
2023-05-13T23:27:27.072Z,98230.81
2023-05-13T23:30:29.800Z,98230.81
2023-05-13T23:33:32.492Z,98227.91
2023-05-13T23:36:36.595Z,98225.22
2023-05-13T23:39:39.326Z,98219.03
2023-05-13T23:42:43.061Z,98211.69
2023-05-13T23:45:46.807Z,98204.94
2023-05-13T23:48:49.524Z,98206.09
2023-05-13T23:51:53.832Z,98200.47
2023-05-13T23:54:56.543Z,98207.81
2023-05-13T23:58:00.184Z,98205.69
